createdAt,value
2018-10-07T00:02:29.118Z,16.93
2018-10-07T00:04:58.734Z,16.92
2018-10-07T00:07:28.373Z,16.91
2018-10-07T00:09:57.880Z,16.84
2018-10-07T00:12:27.423Z,16.84
2018-10-07T00:14:56.882Z,16.72
2018-10-07T00:17:26.761Z,16.59
2018-10-07T00:19:56.273Z,16.60
2018-10-07T00:22:25.768Z,16.56
2018-10-07T00:24:55.282Z,16.46
2018-10-07T00:27:24.783Z,16.36
2018-10-07T00:29:54.329Z,16.34
2018-10-07T00:32:23.841Z,16.31
2018-10-07T00:34:53.690Z,16.26
2018-10-07T00:37:23.245Z,16.20
2018-10-07T00:39:52.800Z,16.25
2018-10-07T00:42:22.308Z,16.26
2018-10-07T00:44:51.782Z,16.34
2018-10-07T00:47:21.811Z,16.37
2018-10-07T00:49:51.950Z,16.29
2018-10-07T00:52:22.482Z,16.28
2018-10-07T00:54:52.455Z,16.10
2018-10-07T00:57:21.976Z,16.04
2018-10-07T00:59:52.003Z,16.05
2018-10-07T01:02:21.593Z,16.00
2018-10-07T01:04:51.268Z,15.92
2018-10-07T01:07:21.172Z,15.93
2018-10-07T01:09:50.811Z,15.91
2018-10-07T01:12:20.344Z,15.83
2018-10-07T01:14:49.838Z,15.87
2018-10-07T01:17:19.394Z,15.89
2018-10-07T01:19:48.969Z,15.89
2018-10-07T01:22:18.569Z,15.88
2018-10-07T01:24:48.120Z,15.93
2018-10-07T01:27:17.639Z,15.86
2018-10-07T01:29:47.165Z,15.90
2018-10-07T01:35:13.616Z,15.75
2018-10-07T01:37:43.305Z,15.72
2018-10-07T01:40:12.787Z,15.70
2018-10-07T01:42:42.343Z,15.70
2018-10-07T01:45:11.838Z,15.67
2018-10-07T01:47:41.829Z,15.69
2018-10-07T01:50:11.309Z,15.61
2018-10-07T01:52:41.178Z,15.61
2018-10-07T01:55:10.775Z,15.65
2018-10-07T01:57:40.330Z,15.61
2018-10-07T02:00:10.224Z,15.65
2018-10-07T02:02:39.767Z,15.63
2018-10-07T02:05:09.312Z,15.61
2018-10-07T02:07:39.325Z,15.52
2018-10-07T02:10:09.257Z,15.51
2018-10-07T02:12:38.827Z,15.45
2018-10-07T02:15:08.335Z,15.53
2018-10-07T02:17:37.863Z,15.57
2018-10-07T02:20:07.386Z,15.56
2018-10-07T02:22:37.196Z,15.57
2018-10-07T02:25:07.130Z,15.56
2018-10-07T02:27:36.678Z,15.56
2018-10-07T02:30:07.211Z,15.61
2018-10-07T02:32:36.753Z,15.66
2018-10-07T02:35:06.296Z,15.71
2018-10-07T02:37:35.817Z,15.76
2018-10-07T02:40:05.522Z,15.75
2018-10-07T02:42:35.019Z,15.69
2018-10-07T02:45:04.832Z,15.74
2018-10-07T02:47:35.073Z,15.74
2018-10-07T02:50:20.437Z,15.71
2018-10-07T02:52:53.973Z,15.75
2018-10-07T02:55:27.216Z,15.78
2018-10-07T02:57:58.285Z,15.80
2018-10-07T03:00:27.840Z,15.81
2018-10-07T03:02:57.458Z,15.77
2018-10-07T03:05:26.969Z,15.77
2018-10-07T03:07:56.510Z,15.77
2018-10-07T03:10:25.976Z,15.72
2018-10-07T03:12:55.810Z,15.69
2018-10-07T03:15:25.532Z,15.68
2018-10-07T03:17:55.035Z,15.72
2018-10-07T03:20:24.599Z,15.75
2018-10-07T03:22:54.108Z,15.74
2018-10-07T03:25:23.594Z,15.70
2018-10-07T03:27:53.149Z,15.64
2018-10-07T03:30:22.658Z,15.57
2018-10-07T03:32:52.792Z,15.57
2018-10-07T03:35:22.324Z,15.22
2018-10-07T03:37:52.011Z,15.29
2018-10-07T03:40:21.539Z,15.21
2018-10-07T03:42:51.146Z,15.14
2018-10-07T03:45:20.721Z,15.05
2018-10-07T03:47:50.234Z,14.77
2018-10-07T03:50:19.896Z,14.74
2018-10-07T03:52:49.822Z,14.74
2018-10-07T03:55:19.346Z,14.61
2018-10-07T03:57:48.960Z,14.48
2018-10-07T04:00:18.831Z,14.44
2018-10-07T04:02:48.352Z,14.26
2018-10-07T04:05:17.879Z,14.16
2018-10-07T04:07:47.680Z,14.14
2018-10-07T04:10:17.614Z,13.94
2018-10-07T04:12:47.152Z,13.87
2018-10-07T04:15:16.678Z,13.75
2018-10-07T04:17:46.193Z,13.72
2018-10-07T04:20:15.794Z,13.69
2018-10-07T04:22:45.285Z,13.51
2018-10-07T04:25:14.869Z,13.39
2018-10-07T04:27:44.351Z,13.28
2018-10-07T04:30:13.941Z,13.22
2018-10-07T04:32:43.951Z,13.20
2018-10-07T04:35:13.475Z,13.18
2018-10-07T04:37:43.011Z,13.15
2018-10-07T04:40:12.559Z,13.02
2018-10-07T04:42:42.078Z,12.95
2018-10-07T04:45:11.645Z,12.91
2018-10-07T04:47:41.148Z,12.78
2018-10-07T04:50:10.667Z,12.69
2018-10-07T04:52:40.287Z,12.75
2018-10-07T04:55:09.791Z,12.76
2018-10-07T04:57:39.521Z,12.65
2018-10-07T05:00:09.110Z,12.66
2018-10-07T05:02:39.494Z,12.68
2018-10-07T05:05:09.084Z,12.63
2018-10-07T05:07:38.810Z,12.59
2018-10-07T05:10:41.871Z,12.48
2018-10-07T05:13:11.757Z,12.41
2018-10-07T05:15:41.694Z,12.38
2018-10-07T05:18:11.602Z,12.37
2018-10-07T05:20:41.126Z,12.30
2018-10-07T05:23:10.657Z,12.25
2018-10-07T05:25:40.340Z,12.24
2018-10-07T05:28:10.208Z,12.24
2018-10-07T05:30:40.354Z,12.22
2018-10-07T05:33:09.862Z,12.18
2018-10-07T05:35:39.631Z,12.10
2018-10-07T05:38:09.297Z,12.12
2018-10-07T05:40:38.773Z,12.16
2018-10-07T05:43:08.326Z,12.16
2018-10-07T05:45:37.871Z,12.14
2018-10-07T05:48:07.544Z,12.07
2018-10-07T05:50:37.362Z,12.07
2018-10-07T05:53:07.104Z,12.08
2018-10-07T05:55:36.633Z,12.02
2018-10-07T05:58:06.758Z,12.02
2018-10-07T06:00:37.539Z,12.01
2018-10-07T06:04:23.831Z,12.00
2018-10-07T06:06:56.324Z,11.86
2018-10-07T06:09:28.982Z,11.87
2018-10-07T06:11:58.710Z,11.89
2018-10-07T06:14:45.284Z,11.81
2018-10-07T06:17:15.245Z,11.81
2018-10-07T06:19:45.329Z,11.81
2018-10-07T06:22:15.502Z,11.76
2018-10-07T06:24:45.051Z,11.76
2018-10-07T06:27:14.578Z,11.75
2018-10-07T06:29:44.100Z,11.64
2018-10-07T06:32:13.826Z,11.74
2018-10-07T06:34:43.375Z,11.73
2018-10-07T06:37:12.916Z,11.71
2018-10-07T06:39:42.764Z,11.67
2018-10-07T06:42:12.792Z,11.72
2018-10-07T06:44:42.317Z,11.72
2018-10-07T06:47:12.196Z,11.69
2018-10-07T06:49:41.702Z,11.65
2018-10-07T06:52:11.586Z,11.71
2018-10-07T06:54:41.087Z,11.70
2018-10-07T06:57:11.058Z,11.63
2018-10-07T06:59:40.611Z,11.62
2018-10-07T07:02:10.225Z,11.62
2018-10-07T07:04:39.739Z,11.57
2018-10-07T07:07:09.652Z,11.53
2018-10-07T07:09:39.186Z,11.52
2018-10-07T07:12:08.707Z,11.56
2018-10-07T07:14:38.248Z,11.66
2018-10-07T07:17:08.174Z,11.62
2018-10-07T07:19:37.726Z,11.50
2018-10-07T07:22:07.825Z,11.47
2018-10-07T07:24:37.585Z,11.46
2018-10-07T07:27:07.252Z,11.49
2018-10-07T07:29:36.802Z,11.45
2018-10-07T07:32:06.295Z,11.44
2018-10-07T07:34:36.157Z,11.42
2018-10-07T07:37:05.754Z,11.45
2018-10-07T07:39:35.287Z,11.45
2018-10-07T07:42:04.812Z,11.41
2018-10-07T07:44:34.286Z,11.45
2018-10-07T07:47:03.820Z,11.43
2018-10-07T07:49:33.325Z,11.43
2018-10-07T07:52:02.893Z,11.39
2018-10-07T07:54:32.394Z,11.37
2018-10-07T07:57:01.975Z,11.40
2018-10-07T07:59:31.448Z,11.43
2018-10-07T08:02:00.983Z,11.49
2018-10-07T08:04:30.457Z,11.54
2018-10-07T08:06:59.968Z,11.62
2018-10-07T08:09:29.427Z,11.65
2018-10-07T08:11:58.907Z,11.65
2018-10-07T08:14:28.417Z,11.65
2018-10-07T08:16:58.426Z,11.67
2018-10-07T08:19:27.938Z,11.64
2018-10-07T08:21:57.432Z,11.56
2018-10-07T08:24:26.974Z,11.59
2018-10-07T08:26:56.997Z,11.68
2018-10-07T08:29:26.580Z,11.81
2018-10-07T08:31:56.295Z,11.87
2018-10-07T08:34:25.896Z,11.89
2018-10-07T08:36:55.424Z,11.95
2018-10-07T08:39:24.975Z,11.96
2018-10-07T08:41:54.587Z,12.03
2018-10-07T08:44:24.354Z,12.06
2018-10-07T08:46:53.856Z,12.09
2018-10-07T08:49:23.391Z,12.12
2018-10-07T08:51:53.099Z,12.11
2018-10-07T08:54:22.660Z,12.24
2018-10-07T08:56:52.375Z,12.32
2018-10-07T08:59:21.872Z,12.34
2018-10-07T09:01:51.772Z,12.40
2018-10-07T09:04:21.248Z,12.38
2018-10-07T09:06:51.108Z,12.45
2018-10-07T09:09:20.621Z,12.48
2018-10-07T09:11:50.195Z,12.47
2018-10-07T09:14:19.710Z,12.51
2018-10-07T09:16:49.258Z,12.57
2018-10-07T09:19:18.746Z,12.73
2018-10-07T09:21:48.266Z,12.76
2018-10-07T09:24:17.837Z,12.81
2018-10-07T09:26:47.405Z,12.73
2018-10-07T09:29:17.067Z,12.76
2018-10-07T09:31:48.508Z,12.78
2018-10-07T09:34:18.018Z,12.83
2018-10-07T09:36:47.584Z,12.89
2018-10-07T09:39:17.301Z,13.06
2018-10-07T09:41:47.008Z,13.11
2018-10-07T09:44:16.537Z,13.19
2018-10-07T09:46:46.571Z,13.32
2018-10-07T09:49:16.133Z,13.39
2018-10-07T09:51:45.633Z,13.44
2018-10-07T09:54:15.206Z,13.52
2018-10-07T09:56:44.696Z,13.52
2018-10-07T09:59:14.203Z,13.52
2018-10-07T10:01:43.755Z,13.61
2018-10-07T10:04:13.655Z,13.69
2018-10-07T10:06:43.302Z,13.85
2018-10-07T10:09:12.805Z,14.00
2018-10-07T10:11:42.263Z,14.14
2018-10-07T10:14:12.175Z,14.20
2018-10-07T10:16:46.459Z,14.25
2018-10-07T10:19:24.885Z,14.31
2018-10-07T10:22:15.566Z,14.46
2018-10-07T10:25:31.086Z,14.58
2018-10-07T10:28:09.877Z,14.63
2018-10-07T10:31:02.927Z,14.61
2018-10-07T10:33:35.870Z,14.50
2018-10-07T10:37:20.872Z,14.58
2018-10-07T10:40:03.107Z,14.49
2018-10-07T10:42:46.937Z,14.46
2018-10-07T10:45:30.515Z,14.39
2018-10-07T10:49:20.045Z,14.39
2018-10-07T10:53:09.317Z,14.48
2018-10-07T10:56:19.152Z,14.48
2018-10-07T10:59:05.030Z,14.41
2018-10-07T11:02:57.213Z,14.46
2018-10-07T11:05:40.314Z,14.54
2018-10-07T11:08:38.164Z,14.49
2018-10-07T11:11:18.829Z,14.60
2018-10-07T11:14:07.168Z,14.63
2018-10-07T11:16:58.659Z,14.71
2018-10-07T11:19:50.320Z,14.83
2018-10-07T11:24:39.511Z,14.84
2018-10-07T11:27:53.877Z,14.88
2018-10-07T11:30:50.463Z,14.94
2018-10-07T11:33:43.049Z,15.03
2018-10-07T11:36:36.225Z,15.12
2018-10-07T11:39:19.081Z,15.16
2018-10-07T11:42:04.763Z,15.27
2018-10-07T11:45:13.711Z,15.29
2018-10-07T11:47:58.702Z,15.32
2018-10-07T11:50:50.941Z,15.36
2018-10-07T11:53:30.535Z,15.34
2018-10-07T11:56:00.066Z,15.35
2018-10-07T11:58:29.618Z,15.38
2018-10-07T12:01:02.135Z,15.24
2018-10-07T12:03:34.800Z,15.29
2018-10-07T12:06:08.074Z,15.33
2018-10-07T12:08:41.042Z,15.29
2018-10-07T12:11:12.538Z,15.13
2018-10-07T12:13:43.945Z,15.12
2018-10-07T12:16:15.664Z,15.07
2018-10-07T12:18:46.213Z,15.09
2018-10-07T12:21:15.730Z,15.09
2018-10-07T12:23:45.257Z,15.11
2018-10-07T12:26:14.751Z,15.14
2018-10-07T12:28:44.410Z,15.14
2018-10-07T12:31:13.947Z,15.15
2018-10-07T12:33:43.664Z,15.14
2018-10-07T12:36:16.087Z,15.21
2018-10-07T12:38:48.938Z,15.23
2018-10-07T12:41:21.780Z,15.23
2018-10-07T12:43:54.228Z,15.24
2018-10-07T12:46:26.963Z,15.25
2018-10-07T12:49:00.034Z,15.15
2018-10-07T12:51:33.058Z,15.12
2018-10-07T12:54:05.708Z,15.10
2018-10-07T12:56:37.394Z,15.14
2018-10-07T12:59:09.693Z,15.23
2018-10-07T13:01:39.340Z,15.30
2018-10-07T13:04:10.885Z,15.34
2018-10-07T13:06:42.316Z,15.33
2018-10-07T13:09:13.373Z,15.34
2018-10-07T13:11:44.753Z,15.35
2018-10-07T13:14:16.359Z,15.43
2018-10-07T13:16:47.981Z,15.40
2018-10-07T13:19:18.587Z,15.47
2018-10-07T13:21:52.060Z,15.46
2018-10-07T13:24:25.276Z,15.43
2018-10-07T13:26:57.522Z,15.44
2018-10-07T13:29:30.486Z,15.42
2018-10-07T13:32:03.421Z,15.41
2018-10-07T13:34:33.136Z,15.46
2018-10-07T13:37:02.690Z,15.44
2018-10-07T13:39:32.221Z,15.52
2018-10-07T13:42:01.755Z,15.57
2018-10-07T13:44:31.880Z,15.59
2018-10-07T13:47:01.371Z,15.60
2018-10-07T13:49:30.893Z,15.66
2018-10-07T13:52:00.514Z,15.69
2018-10-07T13:54:30.018Z,15.69
2018-10-07T13:56:59.738Z,15.57
2018-10-07T13:59:29.242Z,15.63
2018-10-07T14:01:58.829Z,15.57
2018-10-07T14:04:28.457Z,15.57
2018-10-07T14:06:58.101Z,15.57
2018-10-07T14:09:27.640Z,15.53
2018-10-07T14:11:57.854Z,15.55
2018-10-07T14:14:27.764Z,15.60
2018-10-07T14:16:57.271Z,15.68
2018-10-07T14:19:26.779Z,15.65
2018-10-07T14:21:56.459Z,15.66
2018-10-07T14:24:26.038Z,15.69
2018-10-07T14:26:55.575Z,15.72
2018-10-07T14:29:25.184Z,15.70
2018-10-07T14:31:54.727Z,15.62
2018-10-07T14:34:24.303Z,15.61
2018-10-07T14:36:53.860Z,15.62
2018-10-07T14:39:23.453Z,15.58
2018-10-07T14:41:53.110Z,15.56
2018-10-07T14:44:22.641Z,15.53
2018-10-07T14:46:52.181Z,15.55
2018-10-07T14:49:23.002Z,15.58
2018-10-07T14:51:52.707Z,15.61
2018-10-07T14:54:22.327Z,15.62
2018-10-07T14:56:51.855Z,15.66
2018-10-07T14:59:21.921Z,15.71
2018-10-07T15:01:51.637Z,15.68
2018-10-07T15:04:21.336Z,15.68
2018-10-07T15:06:51.293Z,15.65
2018-10-07T15:09:20.916Z,15.65
2018-10-07T15:11:50.410Z,15.68
2018-10-07T15:14:19.995Z,15.64
2018-10-07T15:16:49.520Z,15.52
2018-10-07T15:19:19.027Z,15.56
2018-10-07T15:21:48.768Z,15.55
2018-10-07T15:24:18.382Z,15.50
2018-10-07T15:26:47.894Z,15.51
2018-10-07T15:29:17.439Z,15.43
2018-10-07T15:31:47.243Z,15.36
2018-10-07T15:34:17.110Z,15.35
2018-10-07T15:36:46.681Z,15.34
2018-10-07T15:39:16.242Z,15.33
2018-10-07T15:41:46.104Z,15.30
2018-10-07T15:44:15.612Z,15.23
2018-10-07T15:46:45.155Z,15.21
2018-10-07T15:49:14.735Z,15.24
2018-10-07T15:51:44.331Z,15.19
2018-10-07T15:54:13.834Z,15.21
2018-10-07T15:56:43.494Z,15.14
2018-10-07T15:59:13.129Z,15.08
2018-10-07T16:01:42.820Z,15.03
2018-10-07T16:04:12.327Z,15.03
2018-10-07T16:06:41.829Z,15.01
2018-10-07T16:09:11.607Z,15.00
2018-10-07T16:11:41.094Z,15.00
2018-10-07T16:14:10.651Z,15.00
2018-10-07T16:16:40.625Z,14.97
2018-10-07T16:19:10.129Z,14.99
2018-10-07T16:21:40.002Z,14.97
2018-10-07T16:24:09.579Z,14.93
2018-10-07T16:26:39.379Z,14.91
2018-10-07T16:29:15.621Z,14.89
2018-10-07T16:31:45.185Z,14.84
2018-10-07T16:34:14.682Z,14.80
2018-10-07T16:39:27.297Z,14.70
2018-10-07T16:41:56.850Z,14.69
2018-10-07T16:44:26.368Z,14.63
2018-10-07T16:46:56.210Z,14.58
2018-10-07T16:49:25.783Z,14.58
2018-10-07T16:51:55.293Z,14.52
2018-10-07T16:54:24.828Z,14.51
2018-10-07T16:56:54.333Z,14.44
2018-10-07T16:59:23.925Z,14.44
2018-10-07T17:01:53.749Z,14.48
2018-10-07T17:04:23.365Z,14.47
2018-10-07T17:06:53.247Z,14.41
2018-10-07T17:09:22.721Z,14.35
2018-10-07T17:11:52.227Z,14.29
2018-10-07T17:14:21.736Z,14.26
2018-10-07T17:16:51.335Z,14.20
2018-10-07T17:19:20.867Z,14.20
2018-10-07T17:21:50.385Z,14.21
2018-10-07T17:24:19.922Z,14.17
2018-10-07T17:26:49.602Z,14.17
2018-10-07T17:29:19.133Z,14.15
2018-10-07T17:31:48.667Z,14.10
2018-10-07T17:34:18.136Z,14.08
2018-10-07T17:36:47.644Z,14.02
2018-10-07T17:39:17.170Z,13.96
2018-10-07T17:41:46.717Z,13.91
2018-10-07T17:44:16.199Z,13.89
2018-10-07T17:46:47.012Z,13.87
2018-10-07T17:49:16.707Z,13.80
2018-10-07T17:51:46.168Z,13.80
2018-10-07T17:54:15.750Z,13.81
2018-10-07T17:56:45.299Z,13.78
2018-10-07T17:59:14.891Z,13.66
2018-10-07T18:01:44.467Z,13.52
2018-10-07T18:04:14.587Z,13.44
2018-10-07T18:06:44.511Z,13.42
2018-10-07T18:09:14.085Z,13.36
2018-10-07T18:11:43.759Z,13.35
2018-10-07T18:14:13.439Z,13.32
2018-10-07T18:16:43.066Z,13.22
2018-10-07T18:19:12.585Z,13.25
2018-10-07T18:21:42.187Z,13.25
2018-10-07T18:24:11.919Z,13.21
2018-10-07T18:26:41.467Z,13.18
2018-10-07T18:29:11.173Z,13.13
2018-10-07T18:31:40.789Z,13.07
2018-10-07T18:34:10.461Z,13.01
2018-10-07T18:36:40.116Z,12.95
2018-10-07T18:39:10.073Z,12.86
2018-10-07T18:41:40.319Z,12.79
2018-10-07T18:44:09.879Z,12.70
2018-10-07T18:46:39.397Z,12.62
2018-10-07T18:49:08.969Z,12.59
2018-10-07T18:51:38.659Z,12.57
2018-10-07T18:54:08.218Z,12.58
2018-10-07T18:56:38.021Z,12.61
2018-10-07T18:59:07.535Z,12.60
2018-10-07T19:01:37.066Z,12.53
2018-10-07T19:04:07.109Z,12.44
2018-10-07T19:06:36.963Z,12.41
2018-10-07T19:09:10.039Z,12.35
2018-10-07T19:11:39.634Z,12.34
2018-10-07T19:14:09.225Z,12.27
2018-10-07T19:16:38.927Z,12.24
2018-10-07T19:19:08.422Z,12.21
2018-10-07T19:21:37.913Z,12.20
2018-10-07T19:24:07.782Z,12.23
2018-10-07T19:26:37.284Z,12.23
2018-10-07T19:29:06.863Z,12.27
2018-10-07T19:31:36.366Z,12.25
2018-10-07T19:34:06.208Z,12.15
2018-10-07T19:36:35.747Z,12.07
2018-10-07T19:39:09.155Z,12.10
2018-10-07T19:41:38.852Z,12.04
2018-10-07T19:44:08.419Z,11.91
2018-10-07T19:46:38.289Z,11.77
2018-10-07T19:49:07.831Z,11.65
2018-10-07T19:51:37.384Z,11.52
2018-10-07T19:54:10.145Z,11.46
2018-10-07T19:56:39.698Z,11.35
2018-10-07T19:59:09.142Z,11.38
2018-10-07T20:01:38.640Z,11.46
2018-10-07T20:04:08.667Z,11.53
2018-10-07T20:06:38.588Z,11.53
2018-10-07T20:09:10.343Z,11.49
2018-10-07T20:11:39.911Z,11.44
2018-10-07T20:14:09.448Z,11.39
2018-10-07T20:16:39.039Z,11.25
2018-10-07T20:19:08.856Z,11.06
2018-10-07T20:21:38.510Z,10.96
2018-10-07T20:24:08.261Z,10.86
2018-10-07T20:26:37.854Z,10.85
2018-10-07T20:29:07.715Z,10.91
2018-10-07T20:31:37.253Z,10.89
2018-10-07T20:34:06.744Z,10.79
2018-10-07T20:36:36.251Z,10.86
2018-10-07T20:39:09.028Z,10.90
2018-10-07T20:41:39.078Z,10.91
2018-10-07T20:44:08.861Z,10.90
2018-10-07T20:46:38.556Z,10.81
2018-10-07T20:49:08.099Z,10.75
2018-10-07T20:51:37.626Z,10.70
2018-10-07T20:54:07.526Z,10.58
2018-10-07T20:56:37.051Z,10.58
2018-10-07T20:59:06.760Z,10.63
2018-10-07T21:01:36.247Z,10.67
2018-10-07T21:04:06.307Z,10.68
2018-10-07T21:06:35.851Z,10.71
2018-10-07T21:09:08.762Z,10.70
2018-10-07T21:11:38.601Z,10.62
2018-10-07T21:14:08.126Z,10.59
2018-10-07T21:16:38.063Z,10.66
2018-10-07T21:19:07.583Z,10.58
2018-10-07T21:21:37.426Z,10.52
2018-10-07T21:24:06.987Z,10.46
2018-10-07T21:26:36.756Z,10.41
2018-10-07T21:29:06.562Z,10.32
2018-10-07T21:31:36.098Z,10.13
2018-10-07T21:34:05.600Z,10.01
2018-10-07T21:36:35.093Z,10.04
2018-10-07T21:39:06.069Z,10.07
2018-10-07T21:41:35.685Z,10.14
2018-10-07T21:44:05.695Z,10.20
2018-10-07T21:46:36.169Z,10.19
2018-10-07T21:49:06.463Z,10.11
2018-10-07T21:51:35.990Z,10.10
2018-10-07T21:54:05.483Z,10.08
2018-10-07T21:56:34.985Z,10.11
2018-10-07T21:59:04.470Z,10.10
2018-10-07T22:01:34.123Z,10.02
2018-10-07T22:04:03.960Z,9.94
2018-10-07T22:06:33.802Z,9.96
2018-10-07T22:09:04.209Z,9.92
2018-10-07T22:11:33.798Z,9.91
2018-10-07T22:14:03.648Z,9.86
2018-10-07T22:16:33.170Z,9.79
2018-10-07T22:19:02.719Z,9.75
2018-10-07T22:21:32.247Z,9.69
2018-10-07T22:24:01.741Z,9.75
2018-10-07T22:26:31.228Z,9.70
2018-10-07T22:29:00.931Z,9.75
2018-10-07T22:31:30.428Z,9.80
2018-10-07T22:33:59.921Z,9.76
2018-10-07T22:36:29.663Z,9.74
2018-10-07T22:38:59.505Z,9.72
2018-10-07T22:41:29.018Z,9.68
2018-10-07T22:43:58.476Z,9.63
2018-10-07T22:46:27.979Z,9.52
2018-10-07T22:48:57.484Z,9.46
2018-10-07T22:54:24.542Z,9.35
2018-10-07T22:56:54.079Z,9.33
2018-10-07T22:59:23.647Z,9.39
2018-10-07T23:01:53.195Z,9.41
2018-10-07T23:04:22.682Z,9.40
2018-10-07T23:06:52.487Z,9.30
2018-10-07T23:09:21.975Z,9.27
2018-10-07T23:11:51.488Z,9.31
2018-10-07T23:14:20.992Z,9.29
2018-10-07T23:16:50.827Z,9.25
2018-10-07T23:19:20.353Z,9.18
2018-10-07T23:21:49.834Z,9.07
2018-10-07T23:24:19.394Z,9.07
2018-10-07T23:26:48.880Z,9.10
2018-10-07T23:32:15.487Z,9.10
2018-10-07T23:34:45.395Z,9.08
2018-10-07T23:37:14.919Z,8.97
2018-10-07T23:39:44.751Z,8.92
2018-10-07T23:42:14.337Z,8.92
2018-10-07T23:44:43.821Z,9.02
2018-10-07T23:47:13.339Z,9.02
2018-10-07T23:49:42.852Z,8.97
2018-10-07T23:52:12.406Z,8.99
2018-10-07T23:54:42.132Z,8.97
2018-10-07T23:57:11.754Z,8.87
2018-10-07T23:59:41.246Z,8.74
